Time;durP1;ratioP1;P1;durP2;ratioP2;P2;SDS_P1;SDS_P2;PMS_P1;PMS_P2;Temp;Humidity;BMP_temperature;BMP_pressure;BME280_temperature;BME280_humidity;BME280_pressure;Samples;Min_cycle;Max_cycle;Signal;HPM_P1;HPM_P2
2021/09/15 00:01:36;;;;;;;3.25;2.05;;;;;;;;;;5072746;28;20027;-85
2021/09/15 00:04:02;;;;;;;3.60;2.30;;;;;;;;;;5073380;28;20036;-84
2021/09/15 00:06:28;;;;;;;3.20;2.40;;;;;;;;;;5072093;28;20111;-85
2021/09/15 00:08:54;;;;;;;3.80;2.70;;;;;;;;;;5072897;28;20029;-84
2021/09/15 00:11:20;;;;;;;4.30;2.40;;;;;;;;;;5073370;28;20039;-86
2021/09/15 00:13:46;;;;;;;4.57;2.53;;;;;;;;;;5072810;28;20055;-83
2021/09/15 00:16:12;;;;;;;3.88;2.33;;;;;;;;;;5073348;28;20036;-84
2021/09/15 00:18:38;;;;;;;4.50;3.00;;;;;;;;;;5072567;28;20037;-86
2021/09/15 00:21:05;;;;;;;3.78;2.65;;;;;;;;;;5071881;28;20067;-86
2021/09/15 00:23:31;;;;;;;3.03;1.98;;;;;;;;;;5071990;28;20399;-88
2021/09/15 00:25:57;;;;;;;3.80;2.53;;;;;;;;;;5072765;28;20103;-85
2021/09/15 00:28:23;;;;;;;3.63;2.30;;;;;;;;;;5073058;28;20507;-80
2021/09/15 00:30:48;;;;;;;4.05;2.25;;;;;;;;;;5073163;28;20103;-82
2021/09/15 00:33:15;;;;;;;4.35;2.38;;;;;;;;;;5072244;28;20024;-86
2021/09/15 00:35:41;;;;;;;3.00;2.05;;;;;;;;;;5072446;28;20070;-84
2021/09/15 00:38:07;;;;;;;2.97;2.20;;;;;;;;;;5073121;28;20036;-78
2021/09/15 00:40:33;;;;;;;4.95;2.63;;;;;;;;;;5072044;28;20029;-76
2021/09/15 00:42:59;;;;;;;3.40;2.30;;;;;;;;;;5072246;28;20564;-83
2021/09/15 00:45:25;;;;;;;4.18;2.25;;;;;;;;;;5073072;28;20024;-87
2021/09/15 00:47:51;;;;;;;3.20;2.05;;;;;;;;;;5072042;28;20387;-84
2021/09/15 00:50:17;;;;;;;4.55;2.55;;;;;;;;;;5071869;28;20028;-85
2021/09/15 00:52:43;;;;;;;6.50;2.55;;;;;;;;;;5071172;28;20024;-81
2021/09/15 00:55:09;;;;;;;3.92;2.65;;;;;;;;;;5072735;28;20031;-87
2021/09/15 00:57:35;;;;;;;4.75;2.78;;;;;;;;;;5071057;28;20522;-81
2021/09/15 01:00:01;;;;;;;6.43;2.78;;;;;;;;;;5073242;28;20353;-83
2021/09/15 01:02:28;;;;;;;3.80;2.58;;;;;;;;;;5072060;28;20035;-77
2021/09/15 01:04:54;;;;;;;4.22;2.20;;;;;;;;;;5071824;28;20078;-85
2021/09/15 01:07:20;;;;;;;4.35;2.28;;;;;;;;;;5075877;28;20024;-88
2021/09/15 01:09:48;;;;;;;5.72;2.58;;;;;;;;;;5072438;28;20029;-87
2021/09/15 01:12:14;;;;;;;3.33;2.17;;;;;;;;;;5074421;28;20523;-89
2021/09/15 01:14:41;;;;;;;4.07;2.10;;;;;;;;;;5074042;28;20029;-85
2021/09/15 01:17:07;;;;;;;3.53;1.92;;;;;;;;;;5077305;28;20025;-87
2021/09/15 01:19:33;;;;;;;5.47;2.72;;;;;;;;;;5071136;28;20098;-79
2021/09/15 01:22:00;;;;;;;2.42;1.95;;;;;;;;;;5073483;28;20024;-85
2021/09/15 01:24:27;;;;;;;3.10;2.30;;;;;;;;;;5071215;28;20041;-88
2021/09/15 01:26:53;;;;;;;3.85;2.30;;;;;;;;;;5071959;28;20024;-85
2021/09/15 01:29:20;;;;;;;4.95;2.38;;;;;;;;;;5072801;28;20036;-87
2021/09/15 01:32:04;;;;;;;3.65;2.35;;;;;;;;;;5071586;28;20060;-89
2021/09/15 01:34:33;;;;;;;4.25;2.33;;;;;;;;;;5072055;28;20028;-87
2021/09/15 01:36:59;;;;;;;3.83;2.13;;;;;;;;;;5072100;28;20035;-85
2021/09/15 01:39:25;;;;;;;2.80;2.05;;;;;;;;;;5071725;28;20035;-91
2021/09/15 01:41:51;;;;;;;2.63;1.80;;;;;;;;;;5071711;28;20021;-89
2021/09/15 01:44:17;;;;;;;3.45;2.10;;;;;;;;;;5070870;28;20032;-85
2021/09/15 01:46:43;;;;;;;7.60;2.50;;;;;;;;;;5071737;28;20043;-88
2021/09/15 01:49:09;;;;;;;4.25;2.33;;;;;;;;;;5071132;28;20039;-84
2021/09/15 01:51:39;;;;;;;2.65;2.20;;;;;;;;;;5071031;28;20020;-85
2021/09/15 01:54:05;;;;;;;2.42;1.95;;;;;;;;;;5071611;28;20025;-88
2021/09/15 01:56:31;;;;;;;2.85;2.30;;;;;;;;;;5071781;28;20043;-83
2021/09/15 01:58:57;;;;;;;3.83;1.88;;;;;;;;;;5071747;28;20076;-78
2021/09/15 02:01:23;;;;;;;2.58;1.90;;;;;;;;;;5071138;28;20492;-78
2021/09/15 02:03:49;;;;;;;3.00;2.25;;;;;;;;;;5070947;28;20039;-88
2021/09/15 02:06:15;;;;;;;3.30;2.00;;;;;;;;;;5069899;28;20032;-82
2021/09/15 02:08:41;;;;;;;2.72;2.10;;;;;;;;;;5071314;28;20020;-77
2021/09/15 02:11:07;;;;;;;2.40;1.70;;;;;;;;;;5071320;28;20032;-77
2021/09/15 02:13:33;;;;;;;2.72;2.10;;;;;;;;;;5069460;28;20043;-77
2021/09/15 02:15:59;;;;;;;2.50;1.85;;;;;;;;;;5070422;28;20035;-81
2021/09/15 02:18:25;;;;;;;3.28;1.95;;;;;;;;;;5070505;28;20025;-82
2021/09/15 02:20:51;;;;;;;3.30;2.25;;;;;;;;;;5071107;28;20031;-81
2021/09/15 02:23:17;;;;;;;3.50;1.98;;;;;;;;;;5070036;28;20477;-80
2021/09/15 02:25:43;;;;;;;2.90;2.03;;;;;;;;;;5071034;28;20100;-80
2021/09/15 02:28:09;;;;;;;2.70;1.70;;;;;;;;;;5070530;28;20079;-77
2021/09/15 02:30:35;;;;;;;2.67;1.88;;;;;;;;;;5071033;28;20043;-81
2021/09/15 02:33:01;;;;;;;3.63;2.00;;;;;;;;;;5070969;28;20037;-83
2021/09/15 02:35:27;;;;;;;2.45;1.88;;;;;;;;;;5070650;28;20028;-82
2021/09/15 02:37:53;;;;;;;3.63;2.25;;;;;;;;;;5070865;28;20123;-77
2021/09/15 02:40:19;;;;;;;2.85;1.73;;;;;;;;;;5071038;28;20028;-85
2021/09/15 02:42:45;;;;;;;3.33;2.03;;;;;;;;;;5070316;28;20032;-84
2021/09/15 02:45:11;;;;;;;2.72;2.00;;;;;;;;;;5070141;28;20020;-88
2021/09/15 02:47:37;;;;;;;2.85;1.85;;;;;;;;;;5070317;28;20056;-83
2021/09/15 02:50:03;;;;;;;2.50;1.80;;;;;;;;;;5069511;28;20067;-80
2021/09/15 02:52:29;;;;;;;2.90;2.10;;;;;;;;;;5070861;28;20134;-85
2021/09/15 02:54:55;;;;;;;4.03;1.90;;;;;;;;;;5069264;28;20048;-82
2021/09/15 02:57:21;;;;;;;4.40;2.33;;;;;;;;;;5073534;28;20064;-85
2021/09/15 02:59:47;;;;;;;3.70;2.10;;;;;;;;;;5074695;28;20107;-86
2021/09/15 03:02:13;;;;;;;3.55;2.25;;;;;;;;;;5074848;28;20472;-86
2021/09/15 03:04:39;;;;;;;2.58;1.55;;;;;;;;;;5074309;28;20028;-82
2021/09/15 03:07:05;;;;;;;3.25;2.03;;;;;;;;;;5074866;28;20063;-80
2021/09/15 03:09:31;;;;;;;2.95;2.13;;;;;;;;;;5074573;28;20056;-83
2021/09/15 03:11:57;;;;;;;3.15;2.40;;;;;;;;;;5074116;28;20496;-85
2021/09/15 03:14:23;;;;;;;2.42;1.65;;;;;;;;;;5074551;28;20033;-82
2021/09/15 03:16:49;;;;;;;3.10;1.67;;;;;;;;;;5072154;28;20032;-86
2021/09/15 03:19:15;;;;;;;3.03;2.08;;;;;;;;;;5074132;28;20033;-83
2021/09/15 03:21:41;;;;;;;3.88;1.70;;;;;;;;;;5074898;28;20028;-86
2021/09/15 03:24:08;;;;;;;2.85;2.10;;;;;;;;;;5074187;28;20105;-87
2021/09/15 03:26:34;;;;;;;2.95;1.88;;;;;;;;;;5076859;28;20031;-82
2021/09/15 03:29:00;;;;;;;2.50;1.83;;;;;;;;;;5076198;28;20025;-84
2021/09/15 03:31:26;;;;;;;3.00;1.95;;;;;;;;;;5073403;28;20052;-83
2021/09/15 03:33:51;;;;;;;2.45;1.73;;;;;;;;;;5073952;28;20020;-83
2021/09/15 03:36:17;;;;;;;3.58;2.13;;;;;;;;;;5074156;28;20028;-83
2021/09/15 03:38:43;;;;;;;3.17;1.85;;;;;;;;;;5073614;28;20032;-83
2021/09/15 03:41:10;;;;;;;3.45;1.75;;;;;;;;;;5074043;28;20537;-80
2021/09/15 03:43:36;;;;;;;3.22;1.95;;;;;;;;;;5073338;28;20028;-84
2021/09/15 03:46:02;;;;;;;4.03;2.28;;;;;;;;;;5072520;28;20021;-87
2021/09/15 03:48:28;;;;;;;5.13;2.38;;;;;;;;;;5072485;28;20495;-84
2021/09/15 03:50:54;;;;;;;3.17;2.03;;;;;;;;;;5073824;28;20027;-81
2021/09/15 03:53:20;;;;;;;3.03;2.10;;;;;;;;;;5073990;28;20024;-79
2021/09/15 03:55:46;;;;;;;3.50;2.30;;;;;;;;;;5073696;28;20021;-77
2021/09/15 03:58:12;;;;;;;6.30;2.63;;;;;;;;;;5073320;28;20116;-78
2021/09/15 04:00:38;;;;;;;3.40;2.60;;;;;;;;;;5073455;28;20159;-83
2021/09/15 04:03:04;;;;;;;3.63;2.28;;;;;;;;;;5073638;28;20601;-82
2021/09/15 04:05:31;;;;;;;3.53;2.33;;;;;;;;;;5073420;28;20048;-84
2021/09/15 04:07:57;;;;;;;3.88;2.58;;;;;;;;;;5071208;28;20032;-80
2021/09/15 04:10:23;;;;;;;3.95;2.78;;;;;;;;;;5072020;28;20041;-90
2021/09/15 04:12:49;;;;;;;4.32;2.40;;;21.70;86.20;;;;;;5073143;28;20025;-90
2021/09/15 04:15:15;;;;;;;3.92;2.72;;;22.20;99.90;;;;;;5071719;28;20424;-88
2021/09/15 04:17:41;;;;;;;5.25;3.17;;;;;;;;;;5073040;28;20086;-87
2021/09/15 04:20:07;;;;;;;5.07;3.63;;;;;;;;;;5071681;28;20028;-84
2021/09/15 04:22:35;;;;;;;5.25;3.42;;;;;;;;;;5073783;28;20021;-77
2021/09/15 04:33:15;;;;;;;6.72;4.13;;;;;;;;;;5073405;28;20078;-83
2021/09/15 04:35:41;;;;;;;6.30;4.25;;;;;;;;;;5075670;28;20020;-89
2021/09/15 04:38:07;;;;;;;6.78;4.45;;;;;;;;;;5073528;28;20029;-83
2021/09/15 04:40:33;;;;;;;7.05;4.60;;;;;;;;;;5074110;28;20028;-77
2021/09/15 04:42:59;;;;;;;7.45;5.07;;;;;;;;;;5074069;28;20033;-87
2021/09/15 04:45:26;;;;;;;8.18;4.93;;;;;;;;;;5069429;28;20050;-82
2021/09/15 04:47:51;;;;;;;6.75;5.15;;;;;;;;;;5072681;28;20025;-81
2021/09/15 04:50:17;;;;;;;8.73;5.90;;;;;;;;;;5071979;28;20028;-79
2021/09/15 04:52:43;;;;;;;8.05;5.65;;;;;;;;;;5070826;28;20522;-87
2021/09/15 04:55:10;;;;;;;7.88;5.93;;;;;;;;;;5072391;28;20086;-83
2021/09/15 04:57:36;;;;;;;7.20;5.25;;;;;;;;;;5071916;28;20044;-83
2021/09/15 05:00:02;;;;;;;8.77;5.95;;;;;;;;;;5070742;28;20438;-82
2021/09/15 05:02:28;;;;;;;10.43;6.60;;;;;;;;;;5072322;28;20070;-85
2021/09/15 05:04:54;;;;;;;8.73;6.13;;;;;;;;;;5070346;28;20063;-81
2021/09/15 05:07:20;;;;;;;10.00;6.85;;;;;;;;;;5072282;28;20052;-79
2021/09/15 05:09:46;;;;;;;10.45;6.78;;;;;;;;;;5070644;28;20469;-81
2021/09/15 05:12:12;;;;;;;13.27;7.10;;;;;;;;;;5071688;28;20028;-84
2021/09/15 05:14:38;;;;;;;10.25;7.40;;;;;;;;;;5070519;28;20029;-84
2021/09/15 05:17:04;;;;;;;11.00;7.13;;;;;;;;;;5070543;28;20507;-86
2021/09/15 05:19:30;;;;;;;12.23;8.23;;;;;;;;;;5071576;28;20028;-85
2021/09/15 05:21:56;;;;;;;10.65;7.50;;;;;;;;;;5070446;28;20020;-81
2021/09/15 05:24:22;;;;;;;11.85;8.40;;;;;;;;;;5071746;28;20103;-82
2021/09/15 05:26:48;;;;;;;11.35;7.65;;;;;;;;;;5071660;28;20031;-79
2021/09/15 05:29:14;;;;;;;13.43;7.60;;;;;;;;;;5069623;28;20024;-81
2021/09/15 05:31:40;;;;;;;11.43;7.97;;;;;;;;;;5071507;28;20024;-84
2021/09/15 05:34:06;;;;;;;11.60;7.95;;;;;;;;;;5071736;28;20034;-81
2021/09/15 05:36:32;;;;;;;10.88;7.75;;;;;;;;;;5071439;28;20024;-79
2021/09/15 05:38:58;;;;;;;11.63;8.35;;;;;;;;;;5071568;28;20120;-80
2021/09/15 05:41:24;;;;;;;12.70;8.38;;;;;;;;;;5082011;28;20063;-78
2021/09/15 05:43:50;;;;;;;12.35;8.65;;;;;;;;;;5071481;28;20025;-77
2021/09/15 05:46:16;;;;;;;12.77;8.57;;;;;;;;;;5080501;28;20020;-79
2021/09/15 05:48:42;;;;;;;10.70;8.50;;;;;;;;;;5071357;28;20506;-86
2021/09/15 05:51:08;;;;;;;11.88;8.60;;;;;;;;;;5071567;28;20032;-85
2021/09/15 05:53:34;;;;;;;12.15;9.00;;;;;;;;;;5071502;28;20099;-87
2021/09/15 05:56:00;;;;;;;13.55;9.15;;;;;;;;;;5071998;28;20032;-82
2021/09/15 05:58:26;;;;;;;13.98;10.07;;;;;;;;;;5070855;28;20106;-88
2021/09/15 06:00:52;;;;;;;15.52;10.35;;;;;;;;;;5069880;28;20021;-84
2021/09/15 06:03:18;;;;;;;16.08;10.15;;;;;;;;;;5071216;28;20028;-81
2021/09/15 06:05:44;;;;;;;14.93;10.70;;;;;;;;;;5070866;28;20032;-83
2021/09/15 06:08:10;;;;;;;14.20;10.05;;;;;;;;;;5074603;28;20408;-83
2021/09/15 06:10:36;;;;;;;20.85;16.25;;;;;;;;;;5071168;28;20079;-84
2021/09/15 06:13:02;;;;;;;20.75;14.15;;;;;;;;;;5071568;28;20028;-78
2021/09/15 06:15:28;;;;;;;19.73;13.18;;;;;;;;;;5071402;28;20432;-83
2021/09/15 06:17:54;;;;;;;22.17;15.13;;;;;;;;;;5071077;28;20438;-86
2021/09/15 06:20:20;;;;;;;20.38;14.70;;;;;;;;;;5071463;28;20025;-91
2021/09/15 06:22:46;;;;;;;20.90;14.65;;;;;;;;;;5070619;28;20070;-89
2021/09/15 06:25:12;;;;;;;25.45;14.95;;;;;;;;;;5071483;28;20107;-83
2021/09/15 06:27:39;;;;;;;20.45;14.70;;;;;;;;;;5069910;28;20550;-89
2021/09/15 06:30:05;;;;;;;19.73;14.73;;;;;;;;;;5069992;28;20403;-87
2021/09/15 06:32:31;;;;;;;24.15;15.52;;;;;;;;;;5069613;28;20039;-75
2021/09/15 06:34:57;;;;;;;23.48;16.33;;;;;;;;;;5069847;28;20029;-89
2021/09/15 06:37:24;;;;;;;24.67;19.33;;;;;;;;;;5069921;28;20492;-91
2021/09/15 06:39:50;;;;;;;24.60;17.70;;;;;;;;;;5069442;28;20051;-89
2021/09/15 06:42:16;;;;;;;24.52;17.88;;;;;;;;;;5070469;28;20052;-89
2021/09/15 06:44:43;;;;;;;25.85;17.48;;;;;;;;;;5071027;28;20102;-84
2021/09/15 06:47:09;;;;;;;22.00;16.08;;;;;;;;;;5070856;28;20034;-80
2021/09/15 06:49:35;;;;;;;25.40;19.27;;;;;;;;;;5071022;28;20024;-83
2021/09/15 06:52:01;;;;;;;26.35;17.63;;;;;;;;;;5071215;28;20029;-83
2021/09/15 06:54:27;;;;;;;25.83;17.95;;;;;;;;;;5070990;28;20017;-79
2021/09/15 06:56:53;;;;;;;22.30;16.10;;;;;;;;;;5065109;28;20040;-84
2021/09/15 06:59:19;;;;;;;21.25;15.88;;;;;;;;;;5070513;28;20082;-86
2021/09/15 07:01:45;;;;;;;23.40;16.55;;;;;;;;;;5070877;28;20075;-82
2021/09/15 07:04:11;;;;;;;21.52;14.80;;;;;;;;;;5071079;28;20039;-88
2021/09/15 07:06:37;;;;;;;21.30;15.88;;;;;;;;;;5070468;28;20220;-82
2021/09/15 07:09:03;;;;;;;19.23;14.43;;;;;;;;;;5069716;28;20381;-80
2021/09/15 07:11:29;;;;;;;20.55;15.45;;;;;;;;;;5069960;28;20035;-82
2021/09/15 07:13:57;;;;;;;22.33;15.95;;;;;;;;;;5070444;28;20031;-81
2021/09/15 07:16:23;;;;;;;21.85;13.65;;;;;;;;;;5069526;28;20119;-79
2021/09/15 07:18:49;;;;;;;17.25;13.85;;;;;;;;;;5070662;28;20452;-76
2021/09/15 07:21:15;;;;;;;17.52;12.43;;;;;;;;;;5070972;28;20035;-91
2021/09/15 07:23:41;;;;;;;18.70;12.73;;;;;;;;;;5070983;28;20020;-89
2021/09/15 07:26:07;;;;;;;20.15;13.70;;;;;;;;;;5070809;28;20377;-83
2021/09/15 07:28:33;;;;;;;16.85;12.25;;;;;;;;;;5070589;28;20016;-84
2021/09/15 07:30:59;;;;;;;16.10;11.73;;;;;;;;;;5071042;28;20028;-85
2021/09/15 07:33:26;;;;;;;18.13;12.63;;;;;;;;;;5071063;28;20476;-90
2021/09/15 07:35:52;;;;;;;15.85;11.63;;;;;;;;;;5070578;28;20105;-90
2021/09/15 07:38:17;;;;;;;16.85;11.98;;;;;;;;;;5070661;28;20412;-91
2021/09/15 07:40:43;;;;;;;17.00;11.77;;;;;;;;;;5070516;28;20025;-90
2021/09/15 07:43:09;;;;;;;14.15;11.18;;;;;;;;;;5071569;28;20062;-90
2021/09/15 07:45:35;;;;;;;14.55;11.05;;;;;;;;;;5074059;28;20029;-89
2021/09/15 07:48:02;;;;;;;12.98;10.30;;;;;;;;;;5073376;28;20473;-89
2021/09/15 07:50:29;;;;;;;13.70;10.50;;;;;;;;;;5074717;28;20024;-84
2021/09/15 07:52:55;;;;;;;13.43;10.65;;;;;;;;;;5074185;28;20028;-90
2021/09/15 07:55:21;;;;;;;13.80;9.88;;;;;;;;;;5074109;28;20099;-90
2021/09/15 07:57:47;;;;;;;12.75;9.40;;;;;;;;;;5072906;28;20098;-85
2021/09/15 08:00:14;;;;;;;13.13;9.23;;;;;;;;;;5073747;28;20032;-91
2021/09/15 08:02:40;;;;;;;13.02;9.30;;;;;;;;;;5074133;28;20043;-89
2021/09/15 08:05:06;;;;;;;12.05;9.05;;;;;;;;;;5074139;28;20089;-89
2021/09/15 08:07:32;;;;;;;11.85;8.65;;;;;;;;;;5074347;28;20024;-89
2021/09/15 08:09:58;;;;;;;13.15;9.38;;;;;;;;;;5072667;28;20252;-84
2021/09/15 08:12:24;;;;;;;9.90;8.10;;;;;;;;;;5073605;28;20024;-88
2021/09/15 08:14:50;;;;;;;12.35;8.52;;;;;;;;;;5073386;28;20027;-86
2021/09/15 08:17:16;;;;;;;9.18;7.55;;;;;;;;;;5073698;28;20028;-87
2021/09/15 08:19:42;;;;;;;8.15;6.82;;;;;;;;;;5073279;28;20460;-86
2021/09/15 08:22:08;;;;;;;10.75;7.90;;;;;;;;;;5073482;28;20096;-83
2021/09/15 08:24:34;;;;;;;9.52;7.72;;;;;;;;;;5073093;28;20078;-80
2021/09/15 08:27:00;;;;;;;10.38;7.20;;;;;;;;;;5073826;28;20035;-88
2021/09/15 08:29:26;;;;;;;8.88;6.95;;;;;;;;;;5072309;28;20487;-82
2021/09/15 08:31:52;;;;;;;9.60;6.93;;;;;;;;;;5073026;28;20055;-87
2021/09/15 08:34:18;;;;;;;11.07;6.07;;;;;;;;;;5073308;28;20473;-89
2021/09/15 08:36:44;;;;;;;9.80;6.70;;;;;;;;;;5072857;28;20143;-79
2021/09/15 08:39:10;;;;;;;8.50;6.28;;;;;;;;;;5073082;28;20043;-80
2021/09/15 08:41:36;;;;;;;7.85;6.10;;;;;;;;;;5072821;28;20017;-86
2021/09/15 08:44:02;;;;;;;8.25;6.38;;;;;;;;;;5073109;28;20040;-89
2021/09/15 08:46:28;;;;;;;7.88;5.93;;;;;;;;;;5073366;28;20384;-77
2021/09/15 08:48:57;;;;;;;7.18;5.97;;;;;;;;;;5071326;28;20034;-86
2021/09/15 08:51:23;;;;;;;6.30;4.82;;;;;;;;;;5072683;28;20025;-81
2021/09/15 08:53:49;;;;;;;7.43;5.70;;;;;;;;;;5072361;28;20028;-79
2021/09/15 08:56:16;;;;;;;8.90;6.03;;;;;;;;;;5072992;28;20024;-89
2021/09/15 08:58:42;;;;;;;7.95;5.85;;;;;;;;;;5072567;28;20068;-90
2021/09/15 09:01:09;;;;;;;5.57;4.88;;;;;;;;;;5072634;28;20024;-90
2021/09/15 09:03:36;;;;;;;7.18;5.25;;;;;;;;;;5072554;28;20033;-90
2021/09/15 09:06:12;;;;;;;6.63;4.75;;;;;;;;;;5073020;28;20412;-88
2021/09/15 09:08:39;;;;;;;5.80;4.70;;;;;;;;;;5072427;28;20028;-89
2021/09/15 09:11:06;;;;;;;6.47;4.78;;;;;;;;;;5072393;28;20036;-90
2021/09/15 09:13:33;;;;;;;5.50;4.07;;;;;;;;;;5073048;28;20372;-88
2021/09/15 09:15:59;;;;;;;5.43;4.45;;;;;;;;;;5072675;28;20039;-89
2021/09/15 09:18:25;;;;;;;7.35;4.47;;;;;;;;;;5072475;28;20040;-88
2021/09/15 09:20:51;;;;;;;5.72;4.35;;;;;;;;;;5072013;28;20023;-88
2021/09/15 09:23:18;;;;;;;6.00;4.25;;;;;;;;;;5072160;28;20028;-85
2021/09/15 09:25:55;;;;;;;6.60;4.85;;;;;;;;;;5072092;28;20034;-90
2021/09/15 09:28:20;;;;;;;4.78;4.20;;;;;;;;;;5072087;28;20073;-90
2021/09/15 09:30:49;;;;;;;6.43;4.05;;;;;;;;;;5072026;28;20024;-86
2021/09/15 09:33:15;;;;;;;6.07;4.35;;;;;;;;;;5071071;28;20033;-88
2021/09/15 09:35:46;;;;;;;4.80;3.33;;;;;;;;;;5071797;28;20119;-86
2021/09/15 09:38:19;;;;;;;6.05;4.30;;;;;;;;;;5071924;28;20036;-89
2021/09/15 09:40:54;;;;;;;5.80;4.35;;;;;;;;;;5071763;28;20025;-87
2021/09/15 09:43:20;;;;;;;5.47;3.80;;;;;;;;;;5070695;28;20503;-89
2021/09/15 09:45:47;;;;;;;4.90;3.70;;;;;;;;;;5071439;28;20033;-87
2021/09/15 09:48:27;;;;;;;5.68;4.13;;;;;;;;;;5072120;28;20025;-83
2021/09/15 09:50:53;;;;;;;4.15;3.30;;;;;;;;;;5071455;28;20508;-86
2021/09/15 09:53:20;;;;;;;4.18;2.97;;;;;;;;;;5071635;28;20024;-85
2021/09/15 09:55:46;;;;;;;4.80;3.60;;;;;;;;;;5071515;28;20492;-86
2021/09/15 09:58:13;;;;;;;6.28;3.58;;;;;;;;;;5071429;28;20028;-90
2021/09/15 10:00:39;;;;;;;4.53;3.38;;;;;;;;;;5071491;28;20025;-81
2021/09/15 10:03:05;;;;;;;4.60;3.00;;;;;;;;;;5070214;28;20052;-81
2021/09/15 10:05:31;;;;;;;5.18;3.17;;;;;;;;;;5070039;28;20090;-83
2021/09/15 10:07:57;;;;;;;4.50;3.55;;;;;;;;;;5071191;28;20082;-88
2021/09/15 10:10:24;;;;;;;4.38;2.80;;;;;;;;;;5071410;28;20119;-85
2021/09/15 10:12:51;;;;;;;3.80;2.92;;;;;;;;;;5071436;28;20107;-83
2021/09/15 10:15:18;;;;;;;5.82;3.35;;;;;;;;;;5071373;28;20025;-85
2021/09/15 10:17:48;;;;;;;5.78;3.10;;;;;;;;;;5069802;28;20377;-79
2021/09/15 10:20:15;;;;;;;5.22;3.03;;;;;;;;;;5071552;28;20494;-79
2021/09/15 10:22:48;;;;;;;5.35;2.92;;;;;;;;;;5071164;28;20024;-81
2021/09/15 10:25:14;;;;;;;3.05;2.20;;;;;;;;;;5071629;28;20557;-80
2021/09/15 10:27:59;;;;;;;4.82;3.38;;;;;;;;;;5071210;28;20017;-81
2021/09/15 10:30:44;;;;;;;4.67;3.10;;;;;;;;;;5071505;28;20024;-89
2021/09/15 10:33:28;;;;;;;3.95;3.20;;;;;;;;;;5071328;28;20052;-89
2021/09/15 10:35:54;;;;;;;3.72;2.95;;;;;;;;;;5070929;28;20056;-89
2021/09/15 10:38:40;;;;;;;4.78;2.75;;;;;;;;;;5069654;28;20090;-89
2021/09/15 10:41:06;;;;;;;;;;;;;;;;;;5071787;28;20078;-90
2021/09/15 10:43:40;;;;;;;3.40;2.80;;;;;;;;;;5071731;28;19904;-88
2021/09/15 10:46:16;;;;;;;3.55;2.42;;;;;;;;;;5071175;28;20021;-85
2021/09/15 10:48:42;;;;;;;;;;;;;;;;;;5071529;28;20032;-89
2021/09/15 10:51:08;;;;;;;;;;;;;;;;;;5071785;28;19904;-87
2021/09/15 10:53:35;;;;;;;3.08;2.35;;;;;;;;;;5070932;28;19931;-88
2021/09/15 10:56:02;;;;;;;3.40;2.35;;;;;;;;;;5071480;28;20037;-89
2021/09/15 10:58:33;;;;;;;3.90;2.63;;;;;;;;;;5071457;28;20119;-88
2021/09/15 11:01:01;;;;;;;2.83;2.33;;;;;;;;;;5071485;28;20098;-89
2021/09/15 11:03:30;;;;;;;3.00;2.63;;;;;;;;;;5070910;28;20020;-89
2021/09/15 11:05:56;;;;;;;2.85;2.17;;;;;;;;;;5070691;28;20025;-90
2021/09/15 11:08:24;;;;;;;3.22;2.38;;;;;;;;;;5070971;28;20591;-86
2021/09/15 11:10:50;;;;;;;3.15;2.55;;;;;;;;;;5070662;28;20029;-89
2021/09/15 11:13:39;;;;;;;3.00;2.45;;;;;;;;;;5071124;28;20029;-88
2021/09/15 11:16:26;;;;;;;3.88;2.40;;;;;;;;;;5070937;28;20392;-88
2021/09/15 11:18:55;;;;;;;3.65;2.42;;;;;;;;;;5074052;28;20039;-90
2021/09/15 11:21:22;;;;;;;2.75;2.30;;;;;;;;;;5074679;28;20507;-83
2021/09/15 11:23:52;;;;;;;3.60;1.90;;;;;;;;;;5074239;28;20035;-88
2021/09/15 11:26:33;;;;;;;4.32;1.83;;;;;;;;;;5074676;28;20457;-85
2021/09/15 11:28:59;;;;;;;3.38;2.47;;;;;;;;;;5074812;28;20032;-85
2021/09/15 11:31:25;;;;;;;3.17;2.08;;;;;;;;;;5074402;28;20025;-89
2021/09/15 11:33:51;;;;;;;2.50;2.00;;;;;;;;;;5074272;28;20032;-82
2021/09/15 11:36:17;;;;;;;4.25;2.30;;;;;;;;;;5074371;28;20100;-83
2021/09/15 11:38:43;;;;;;;2.83;2.00;;;;;;;;;;5073871;28;20036;-81
2021/09/15 11:41:10;;;;;;;2.50;2.05;;;;;;;;;;5074118;28;20032;-81
2021/09/15 11:43:37;;;;;;;3.35;2.05;;;;;;;;;;5074105;28;20100;-84
2021/09/15 11:46:03;;;;;;;3.90;2.28;;;;;;;;;;5074377;28;20013;-77
2021/09/15 11:48:29;;;;;;;2.88;2.08;;;;;;;;;;5074426;28;20036;-83
2021/09/15 11:50:58;;;;;;;2.40;1.80;;;;;;;;;;5073882;28;20028;-85
2021/09/15 11:53:26;;;;;;;2.80;1.98;;;;;;;;;;5073718;28;20492;-83
2021/09/15 11:56:03;;;;;;;3.58;1.95;;;;;;;;;;5074038;28;20074;-85
2021/09/15 11:58:29;;;;;;;2.53;1.70;;;;;;;;;;5074125;28;20044;-83
2021/09/15 12:00:55;;;;;;;2.85;1.80;;;;;;;;;;5073524;28;20044;-84
2021/09/15 12:03:27;;;;;;;3.13;1.63;;;;;;;;;;5073861;28;20032;-87
2021/09/15 12:05:54;;;;;;;2.47;1.55;;;;;;;;;;5073512;28;20024;-89
2021/09/15 12:08:20;;;;;;;2.90;1.70;;;;;;;;;;5073756;28;20036;-80
2021/09/15 12:10:47;;;;;;;2.00;1.50;;;;;;;;;;5073367;28;20020;-89
2021/09/15 12:13:13;;;;;;;2.60;1.70;;;;;;;;;;5073890;28;20058;-86
2021/09/15 12:15:49;;;;;;;2.75;1.70;;;;;;;;;;5071953;28;20167;-86
2021/09/15 12:18:21;;;;;;;2.60;1.73;;;;;;;;;;5073761;28;20374;-87
2021/09/15 12:20:48;;;;;;;3.20;1.73;;;;;;;;;;5073511;28;20043;-85
2021/09/15 12:23:14;;;;;;;3.55;1.60;;;;;;;;;;5073653;28;20108;-91
2021/09/15 12:25:51;;;;;;;3.40;1.55;;;;;;;;;;5073401;28;20020;-90
2021/09/15 12:28:24;;;;;;;2.58;1.58;;;;;;;;;;5073161;28;20025;-86
2021/09/15 12:30:50;;;;;;;2.15;1.55;;;;;;;;;;5073034;28;20032;-88
2021/09/15 12:33:22;;;;;;;3.33;1.75;;;;;;;;;;5073275;28;20389;-89
2021/09/15 12:35:48;;;;;;;1.65;1.30;;;;;;;;;;5073175;28;20076;-89
2021/09/15 12:38:14;;;;;;;3.60;1.48;;;;;;;;;;5073415;28;20032;-90
2021/09/15 12:40:40;;;;;;;3.45;1.60;;;;;;;;;;5073104;28;20540;-87
2021/09/15 12:43:08;;;;;;;1.63;1.20;;;;;;;;;;5072965;28;20036;-86
2021/09/15 12:45:34;;;;;;;2.30;1.25;;;;;;;;;;5072830;28;20558;-88
2021/09/15 12:48:01;;;;;;;2.50;1.45;;;;;;;;;;5073416;28;20029;-89
2021/09/15 12:50:36;;;;;;;2.78;1.23;;;;;;;;;;5072915;28;20108;-89
2021/09/15 12:53:12;;;;;;;2.88;1.50;;;;;;;;;;5073302;28;20030;-88
2021/09/15 12:55:42;;;;;;;2.38;1.45;;;;;;;;;;5072821;28;20035;-88
2021/09/15 12:58:09;;;;;;;1.90;1.40;;;;;;;;;;5072549;28;20090;-85
2021/09/15 13:00:36;;;;;;;2.38;1.45;;;;;;;;;;5072632;28;20029;-88
2021/09/15 13:03:02;;;;;;;2.05;1.10;;;;;;;;;;5072851;28;20025;-89
2021/09/15 13:05:31;;;;;;;2.22;1.23;;;;;;;;;;5072019;28;20028;-86
2021/09/15 13:07:58;;;;;;;2.72;1.30;;;;;;;;;;5072355;28;20020;-88
2021/09/15 13:10:24;;;;;;;2.63;1.23;;;;;;;;;;5072397;28;20068;-88
2021/09/15 13:12:50;;;;;;;3.22;1.60;;;;;;;;;;5072346;28;20430;-84
2021/09/15 13:15:16;;;;;;;2.45;1.05;;;;;;;;;;5072580;28;20365;-89
2021/09/15 13:17:42;;;;;;;1.38;1.02;;;;;;;;;;5072159;28;20028;-83
2021/09/15 13:20:09;;;;;;;2.25;1.13;;;;;;;;;;5072265;28;20036;-77
2021/09/15 13:22:36;;;;;;;2.00;1.13;;;;;;;;;;5071985;28;20021;-78
2021/09/15 13:25:03;;;;;;;3.35;1.35;;;;;;;;;;5072597;28;20033;-88
2021/09/15 13:27:29;;;;;;;3.40;1.75;;;;;;;;;;5072674;28;20048;-85
2021/09/15 13:29:55;;;;;;;2.78;1.20;;;;;;;;;;5070834;28;20067;-85
2021/09/15 13:32:21;;;;;;;2.10;1.10;;;;;;;;;;5072197;28;20024;-82
2021/09/15 13:34:47;;;;;;;2.45;1.25;;;;;;;;;;5071740;28;20024;-80
2021/09/15 13:37:13;;;;;;;2.55;1.17;;;;;;;;;;5071687;28;20021;-85
2021/09/15 13:39:39;;;;;;;2.33;1.00;;;;;;;;;;5071861;28;20033;-90
2021/09/15 13:42:06;;;;;;;1.35;0.80;;;;;;;;;;5071166;28;20723;-88
2021/09/15 13:44:32;;;;;;;2.42;0.90;;;;;;;;;;5072464;28;20081;-87
2021/09/15 13:46:58;;;;;;;2.30;1.00;;;;;;;;;;5072112;28;20476;-90
2021/09/15 13:49:24;;;;;;;2.08;1.02;;;;;;;;;;5071764;28;20028;-90
2021/09/15 13:51:50;;;;;;;1.27;0.90;;;;;;;;;;5071866;28;20048;-89
2021/09/15 13:54:17;;;;;;;2.78;1.00;;;;;;;;;;5071660;28;20025;-90
2021/09/15 13:56:43;;;;;;;1.67;1.00;;;;;;;;;;5071591;28;20028;-91
2021/09/15 13:59:09;;;;;;;1.70;0.80;;;;;;;;;;5071708;28;20036;-88
2021/09/15 14:01:35;;;;;;;2.38;1.00;;;;;;;;;;5071509;28;20028;-89
2021/09/15 14:04:01;;;;;;;1.50;0.75;;;;;;;;;;5072165;28;20032;-89
2021/09/15 14:06:27;;;;;;;2.35;1.13;;;;;;;;;;5071557;28;20021;-89
2021/09/15 14:08:53;;;;;;;1.58;0.82;;;;;;;;;;5071211;28;20028;-87
2021/09/15 14:11:19;;;;;;;3.47;1.15;;;;;;;;;;5071485;28;20508;-87
2021/09/15 14:13:45;;;;;;;2.03;1.02;;;;;;;;;;5071492;28;20020;-89
2021/09/15 14:16:12;;;;;;;1.98;0.90;;;;;;;;;;5071662;28;20541;-88
2021/09/15 14:18:38;;;;;;;1.73;1.00;;;;;;;;;;5071454;28;20119;-89
2021/09/15 14:21:04;;;;;;;1.63;0.98;;;;;;;;;;5071495;28;20099;-88
2021/09/15 14:23:30;;;;;;;2.33;0.98;;;;;;;;;;5071703;28;20399;-90
2021/09/15 14:25:56;;;;;;;3.25;0.90;;;;;;;;;;5070251;28;20025;-89
2021/09/15 14:28:22;;;;;;;1.52;0.77;;;;;;;;;;5071622;28;20035;-86
2021/09/15 14:30:48;;;;;;;1.70;0.90;;;;;;;;;;5071365;28;20393;-83
2021/09/15 14:33:14;;;;;;;1.55;0.90;;;;;;;;;;5071511;28;20403;-85
2021/09/15 14:35:40;;;;;;;1.45;0.90;;;;;;;;;;5070782;28;20100;-84
2021/09/15 14:38:06;;;;;;;4.30;1.48;;;;;;;;;;5071023;28;20036;-86
2021/09/15 14:40:32;;;;;;;1.92;0.82;;;;;;;;;;5071494;28;20031;-82
2021/09/15 14:42:58;;;;;;;2.15;0.85;;;;;;;;;;5071433;28;20288;-78
2021/09/15 14:45:24;;;;;;;2.17;0.85;;;;;;;;;;5071143;28;20025;-84